Santa Fe Municipal, NM

05:57 MDT le 28 mai 2015 (GMT -0600)
Santa Fe Municipal | | Change Station
CLOSE
Current Station
Aéroport
Location: Santa Fe,
Altitude: 6345 ft
Stations météo à proximité

Alt. 6345 ft 35.62 °N, 106.09 °W | Updated 4 minutes ago

Partiellement nuageux
Partiellement nuageux
51 ° F
Paraît 51 ° F
N
7
Vent Variable Vent de NE

Aujourd'hui
Haut(e) -- | Bas -- ° F
--% Risque de précip.
Hier
Haut(e) -- | Bas -- ° F
Precip. -- pouce
5:51 AM 8:12 PM
Lune gibbeuse croissante, 75% visible
Pression 29.90 pouce
Visibilité 10.0 Miles terrestres
Nuages Ciel dégagé
Point de rosée 33 ° F
Humidité 50%
Précipitations 0.00 pouce
Profondeur de la couche neigeuse Non disponible.
UV 0 sur 12
Pollen 5.40 sur 12
Qualité de l'air Non disponible.
Flu Activity Local Activity
METAR KSAF 281153Z AUTO 05006KT 10SM CLR 11/01 A3014 RMK AO2 SLP124 T01060006 10144 20089 53008

More Conditions Fewer Conditions

Pression 29.90 pouce
Visibilité 10.0 Miles terrestres
Nuages Ciel dégagé
Point de rosée 33 ° F
Humidité 50%
Précipitations 0.00 pouce
Profondeur de la couche neigeuse Non disponible.
UV 0 sur 12
Pollen 5.40 sur 12
Qualité de l'air Non disponible.
Flu Activity Local Activity
METAR KSAF 281153Z AUTO 05006KT 10SM CLR 11/01 A3014 RMK AO2 SLP124 T01060006 10144 20089 53008

More Conditions Fewer Conditions

10-Day Weather Forecast

Almanac

Astronomie

May. 28, 2015 Lever Coucher
Temps réel
Crépuscule civil
Crépuscule nautique
Crépuscule astronomique
Lune
Durée de lumière visible
Longueur du jour
Tomorrow will be .
, % of the Moon is Illuminated

Extrêmes aujourd'hui

State Highs State Lows

Community

WunderPhotos

Upload Photos

1,824,959 Photos téléchargées !

WunderBlogs® & News

Nearby

Qualité de l'air

  Qualité de l'air Indice de la qualité de l'air Polluant
Not available.

Épaisseur de neige

Station Depth Altitude

Activité sismique

Ville Distance Mag. Time & Date
Minimum magnitude displayed is 2.5.

Températures des eaux côtières

Lieu Température

Stations

Stations météo à proximité

Emplacement de la station Température Refroidissement éolien Point de rosée Humidité Vent Precip. Alt. Mise à jour Type